Historique des mesures à Cassis (13260), France
Quotidien Résumé Janvier 17, 2017 Unités:  Métrique    US   Métrique/US
« Précédent (Jour)
Suivant (Jour) »
Quotidien Hebdomadaire Mensuel Annuel Période au choix
  Maximum: Minimum: Moyenne:
Température: TemperatureC °C 1.6 °C 3.5 °C
Point de rosée: DewpointC °C -12.0 °C -9.1 °C
Humidité: Humidity % 31 % 36 %
Vitesse du vent: 0 km/h 0 km/h 8.4 km/h
Rafales: 0 km/h - -
Vent:- - South
Pression: PressurehPa hPa 1009.4 hPa -
Précipitations: 0.0 mm    
Historical Graphs
 
 
Mesures pour : Janvier 17, 2017
Heure Temperature Point de rosée Pression Vent Vitesse du vent Rafales Humidité Pluie (par heure) Conditions
TemperatureC °C DewpointC °C PressurehPa hPa Calm     Humidity % HourlyPrecipMM mm SoftwareType W/m2
00:11 2.8 °C -10.2 °C 1010.0 hPa North 12.2 km/h 12.7 km/h 38 % 0.0 mm open2300-1.11 W/m2
01:10 2.6 °C -10.4 °C 1009.7 hPa NNW 10.9 km/h 20.3 km/h 38 % 0.0 mm open2300-1.11 W/m2
02:11 2.4 °C -10.6 °C 1009.4 hPa North 12.2 km/h 12.2 km/h 38 % 0.0 mm open2300-1.11 W/m2
03:10 2.1 °C -10.8 °C 1009.4 hPa NW 15.6 km/h 15.6 km/h 38 % 0.0 mm open2300-1.11 W/m2
04:11 1.8 °C -10.7 °C 1009.4 hPa NW 18.7 km/h 22 km/h 39 % 0.0 mm open2300-1.11 W/m2
05:10 1.8 °C -11.1 °C 1009.4 hPa NNW 5.1 km/h 21.6 km/h 38 % 0.0 mm open2300-1.11 W/m2
06:11 1.8 °C -11.4 °C 1009.4 hPa North 14 km/h 16.3 km/h 37 % 0.0 mm open2300-1.11 W/m2
07:10 1.6 °C -12.0 °C 1010.0 hPa NW 5.6 km/h 8 km/h 36 % 0.0 mm open2300-1.11 W/m2
08:11 1.7 °C -11.9 °C 1010.4 hPa NW 9.8 km/h 10.9 km/h 36 % 0.0 mm open2300-1.11 W/m2
09:10 2.7 °C -11.7 °C 1010.4 hPa NE 9.3 km/h 33.6 km/h 34 % 0.0 mm open2300-1.11 W/m2
10:11 3.4 °C -11.4 °C 1010.7 hPa NNE 12.7 km/h 19.6 km/h 33 % 0.0 mm open2300-1.11 W/m2
11:10 4.5 °C -10.5 °C 1012.1 hPa Calm     33 % 0.0 mm open2300-1.11 W/m2
12:11 5.8 °C -10.1 °C 1011.7 hPa Calm   4.2 km/h 31 % 0.0 mm open2300-1.11 W/m2
13:10 6.3 °C -9.3 °C 1011.7 hPa Calm   4.7 km/h 32 % 0.0 mm open2300-1.11 W/m2
14:11 6.8 °C -8.8 °C 1011.4 hPa West 10.9 km/h 20.3 km/h 32 % 0.0 mm open2300-1.11 W/m2
15:10 6.7 °C -8.2 °C 1011.1 hPa NNW 30.1 km/h 30.1 km/h 34 % 0.0 mm open2300-1.11 W/m2
16:11 6.2 °C -7.2 °C 1011.4 hPa NNE 4.2 km/h 31.9 km/h 38 % 0.0 mm open2300-1.11 W/m2
17:10 5.1 °C -7.8 °C 1011.7 hPa North 7.6 km/h 16.3 km/h 39 % 0.0 mm open2300-1.11 W/m2
18:11 4.4 °C -7.8 °C 1012.4 hPa Calm   11.6 km/h 41 % 0.0 mm open2300-1.11 W/m2
19:10 3.8 °C -7.7 °C 1012.8 hPa Calm     43 % 0.0 mm open2300-1.11 W/m2
20:11 3.5 °C -7.4 °C 1012.8 hPa NNE 9.3 km/h 11.6 km/h 45 % 0.0 mm open2300-1.11 W/m2
21:10 3.4 °C -7.2 °C 1013.4 hPa Calm     46 % 0.0 mm open2300-1.11 W/m2
22:11 3.2 °C -7.1 °C 1013.8 hPa NW 9.3 km/h 9.3 km/h 47 % 0.0 mm open2300-1.11 W/m2
23:10 4.1 °C -7.2 °C 1013.8 hPa NW 13.2 km/h 13.2 km/h 44 % 0.0 mm open2300-1.11 W/m2
Observations météo à CASSIS
WU-History script by Weather Underground - 1 mb